createdAt,value
2022-10-08T00:01:54.451Z,60.92
2022-10-08T00:04:22.154Z,60.77
2022-10-08T00:06:49.757Z,60.83
2022-10-08T00:09:18.787Z,60.74
2022-10-08T00:11:46.396Z,61.10
2022-10-08T00:14:14.030Z,60.84
2022-10-08T00:16:42.034Z,61.05
2022-10-08T00:19:11.579Z,61.01
2022-10-08T00:21:40.273Z,60.76
2022-10-08T00:24:08.671Z,61.07
2022-10-08T00:26:43.369Z,60.60
2022-10-08T00:29:12.714Z,60.96
2022-10-08T00:31:41.528Z,60.69
2022-10-08T00:34:10.139Z,60.61
2022-10-08T00:36:38.176Z,60.49
2022-10-08T00:39:07.053Z,60.86
2022-10-08T00:41:35.857Z,60.71
2022-10-08T00:44:24.984Z,60.59
2022-10-08T00:46:54.178Z,60.85
2022-10-08T00:49:21.926Z,60.86
2022-10-08T00:51:51.449Z,60.57
2022-10-08T00:54:19.401Z,60.81
2022-10-08T00:56:47.706Z,60.55
2022-10-08T00:59:16.810Z,60.45
2022-10-08T01:01:44.928Z,60.70
2022-10-08T01:04:14.399Z,60.49
2022-10-08T01:06:45.457Z,60.51
2022-10-08T01:09:18.804Z,60.54
2022-10-08T01:11:49.012Z,60.56
2022-10-08T01:14:26.057Z,60.81
2022-10-08T01:16:58.272Z,60.55
2022-10-08T01:19:53.085Z,60.67
2022-10-08T01:22:29.663Z,60.51
2022-10-08T01:25:15.226Z,60.56
2022-10-08T01:27:44.922Z,60.54
2022-10-08T01:30:14.456Z,60.56
2022-10-08T01:32:43.236Z,60.61
2022-10-08T01:35:12.122Z,60.44
2022-10-08T01:37:41.698Z,60.75
2022-10-08T01:40:11.823Z,60.51
2022-10-08T01:42:40.044Z,60.50
2022-10-08T01:45:12.144Z,60.59
2022-10-08T01:47:40.637Z,60.57
2022-10-08T01:50:09.963Z,60.44
2022-10-08T01:52:38.521Z,60.65
2022-10-08T01:55:09.279Z,60.65
2022-10-08T01:57:36.882Z,60.41
2022-10-08T02:00:07.039Z,60.54
2022-10-08T02:02:36.035Z,60.39
2022-10-08T02:05:04.126Z,60.74
2022-10-08T02:07:32.538Z,60.70
2022-10-08T02:10:05.468Z,60.43
2022-10-08T02:12:33.153Z,60.39
2022-10-08T02:15:00.914Z,60.39
2022-10-08T02:17:31.750Z,60.51
2022-10-08T02:20:01.818Z,60.36
2022-10-08T02:22:32.706Z,60.49
2022-10-08T02:25:01.932Z,60.85
2022-10-08T02:27:32.138Z,60.42
2022-10-08T02:30:05.261Z,60.52
2022-10-08T02:32:34.925Z,60.71
2022-10-08T02:35:07.554Z,60.45
2022-10-08T02:37:38.332Z,60.68
2022-10-08T02:40:08.364Z,60.45
2022-10-08T02:42:36.622Z,60.45
2022-10-08T02:45:07.474Z,60.47
2022-10-08T02:47:35.213Z,60.49
2022-10-08T02:50:05.963Z,60.65
2022-10-08T02:52:35.266Z,60.43
2022-10-08T02:55:02.874Z,60.37
2022-10-08T02:57:32.483Z,60.46
2022-10-08T03:00:00.045Z,60.32
2022-10-08T03:02:31.016Z,60.40
2022-10-08T03:05:01.509Z,60.40
2022-10-08T03:07:30.970Z,60.59
2022-10-08T03:09:58.639Z,60.40
2022-10-08T03:12:26.482Z,60.68
2022-10-08T03:14:54.142Z,60.41
2022-10-08T03:17:23.658Z,60.49
2022-10-08T03:19:51.420Z,60.48
2022-10-08T03:22:19.137Z,60.40
2022-10-08T03:24:48.530Z,60.60
2022-10-08T03:27:16.133Z,60.58
2022-10-08T03:29:43.789Z,60.51
2022-10-08T03:32:11.365Z,60.41
2022-10-08T03:34:39.040Z,60.42
2022-10-08T03:37:06.653Z,60.46
2022-10-08T03:39:34.361Z,60.53
2022-10-08T03:42:03.345Z,60.47
2022-10-08T03:44:30.973Z,60.51
2022-10-08T03:46:58.643Z,60.34
2022-10-08T03:49:26.243Z,60.46
2022-10-08T03:51:53.858Z,60.47
2022-10-08T03:54:21.451Z,60.44
2022-10-08T03:56:49.052Z,60.52
2022-10-08T03:59:18.046Z,60.42
2022-10-08T04:01:45.727Z,60.34
2022-10-08T04:04:13.362Z,60.48
2022-10-08T04:06:40.979Z,60.36
2022-10-08T04:09:09.786Z,60.48
2022-10-08T04:11:37.417Z,60.40
2022-10-08T04:14:05.077Z,60.38
2022-10-08T04:16:34.050Z,60.40
2022-10-08T04:19:01.684Z,60.64
2022-10-08T04:21:30.269Z,60.51
2022-10-08T04:23:57.944Z,60.74
2022-10-08T04:26:25.564Z,60.64
2022-10-08T04:28:53.277Z,60.49
2022-10-08T04:31:23.246Z,60.76
2022-10-08T04:33:52.396Z,60.53
2022-10-08T04:36:21.049Z,60.48
2022-10-08T04:38:48.744Z,60.63
2022-10-08T04:41:17.344Z,60.46
2022-10-08T04:43:45.690Z,60.53
2022-10-08T04:46:14.112Z,60.50
2022-10-08T04:48:41.822Z,60.44
2022-10-08T04:51:11.050Z,60.60
2022-10-08T04:53:38.818Z,60.59
2022-10-08T04:56:10.953Z,60.58
2022-10-08T04:58:38.603Z,60.61
2022-10-08T05:01:06.638Z,60.59
2022-10-08T05:03:36.973Z,60.53
2022-10-08T05:06:04.930Z,60.53
2022-10-08T05:08:34.017Z,60.63
2022-10-08T05:11:01.702Z,60.53
2022-10-08T05:13:29.346Z,60.53
2022-10-08T05:15:57.054Z,60.68
2022-10-08T05:18:24.848Z,60.53
2022-10-08T05:20:52.425Z,60.60
2022-10-08T05:23:19.989Z,60.60
2022-10-08T05:26:14.565Z,60.67
2022-10-08T05:29:02.656Z,60.54
2022-10-08T05:31:30.605Z,60.55
2022-10-08T05:33:58.223Z,60.59
2022-10-08T05:36:27.100Z,60.75
2022-10-08T05:38:55.021Z,60.61
2022-10-08T05:41:25.469Z,60.66
2022-10-08T05:43:54.241Z,60.58
2022-10-08T05:46:22.040Z,60.66
2022-10-08T05:48:49.629Z,60.58
2022-10-08T05:51:17.838Z,60.59
2022-10-08T05:53:50.891Z,60.45
2022-10-08T05:56:19.866Z,60.56
2022-10-08T05:58:49.115Z,60.60
2022-10-08T06:01:17.514Z,60.48
2022-10-08T06:03:45.182Z,60.64
2022-10-08T06:06:12.869Z,60.65
2022-10-08T06:08:41.308Z,60.70
2022-10-08T06:11:09.035Z,60.68
2022-10-08T06:13:36.629Z,60.54
2022-10-08T06:16:06.684Z,60.60
2022-10-08T06:18:37.106Z,60.61
2022-10-08T06:21:05.409Z,60.62
2022-10-08T06:23:33.079Z,60.61
2022-10-08T06:26:02.768Z,60.69
2022-10-08T06:28:30.602Z,60.86
2022-10-08T06:30:59.856Z,60.87
2022-10-08T06:33:28.947Z,60.75
2022-10-08T06:35:56.546Z,60.72
2022-10-08T06:38:24.237Z,60.87
2022-10-08T06:40:51.946Z,60.75
2022-10-08T06:43:20.335Z,61.15
2022-10-08T06:45:47.953Z,60.88
2022-10-08T06:48:15.619Z,60.67
2022-10-08T06:50:44.547Z,60.67
2022-10-08T06:53:12.315Z,60.58
2022-10-08T06:55:39.949Z,60.77
2022-10-08T06:58:07.555Z,60.52
2022-10-08T07:00:35.311Z,60.64
2022-10-08T07:03:03.057Z,60.64
2022-10-08T07:05:30.696Z,60.54
2022-10-08T07:07:59.681Z,60.77
2022-10-08T07:10:32.402Z,60.66
2022-10-08T07:13:00.883Z,60.61
2022-10-08T07:15:28.501Z,60.72
2022-10-08T07:17:56.106Z,60.87
2022-10-08T07:20:23.724Z,62.01
2022-10-08T07:22:51.317Z,61.93
2022-10-08T07:25:20.254Z,62.11
2022-10-08T07:27:47.873Z,62.23
2022-10-08T07:30:15.739Z,62.29
2022-10-08T07:32:43.317Z,62.33
2022-10-08T07:35:11.094Z,62.53
2022-10-08T07:37:42.518Z,62.64
2022-10-08T07:40:11.330Z,62.96
2022-10-08T07:42:40.349Z,62.94
2022-10-08T07:45:09.076Z,63.12
2022-10-08T07:47:36.685Z,62.90
2022-10-08T07:50:04.731Z,63.07
2022-10-08T07:52:32.371Z,63.10
2022-10-08T07:55:00.265Z,63.20
2022-10-08T07:57:28.574Z,63.13
2022-10-08T07:59:57.665Z,63.28
2022-10-08T08:02:25.377Z,63.33
2022-10-08T08:04:53.013Z,63.34
2022-10-08T08:07:20.612Z,63.71
2022-10-08T08:09:48.176Z,63.75
2022-10-08T08:12:16.231Z,63.95
2022-10-08T08:14:44.464Z,63.71
2022-10-08T08:17:13.498Z,63.39
2022-10-08T08:19:41.358Z,63.76
2022-10-08T08:22:08.950Z,63.67
2022-10-08T08:24:36.563Z,63.48
2022-10-08T08:27:04.295Z,63.39
2022-10-08T08:29:32.047Z,63.32
2022-10-08T08:31:59.687Z,63.38
2022-10-08T08:34:28.678Z,63.38
2022-10-08T08:36:56.312Z,63.42
2022-10-08T08:39:25.133Z,63.27
2022-10-08T08:42:03.866Z,63.09
2022-10-08T08:44:33.339Z,63.23
2022-10-08T08:47:02.367Z,63.18
2022-10-08T08:49:35.086Z,63.26
2022-10-08T08:52:03.062Z,63.20
2022-10-08T08:54:30.721Z,63.16
2022-10-08T08:56:58.562Z,62.97
2022-10-08T08:59:27.558Z,62.60
2022-10-08T09:01:57.795Z,63.23
2022-10-08T09:04:28.498Z,63.21
2022-10-08T09:06:57.545Z,63.28
2022-10-08T09:09:26.919Z,63.49
2022-10-08T09:11:55.054Z,63.42
2022-10-08T09:14:33.180Z,63.46
2022-10-08T09:17:02.303Z,63.64
2022-10-08T09:19:30.336Z,63.76
2022-10-08T09:21:59.543Z,63.45
2022-10-08T09:24:29.742Z,63.50
2022-10-08T09:26:57.720Z,63.41
2022-10-08T09:29:33.250Z,63.28
2022-10-08T09:32:01.011Z,63.22
2022-10-08T09:34:28.702Z,62.89
2022-10-08T09:37:04.706Z,62.77
2022-10-08T09:39:33.418Z,62.58
2022-10-08T09:42:17.311Z,62.24
2022-10-08T09:44:45.383Z,62.14
2022-10-08T09:47:14.078Z,62.02
2022-10-08T09:49:42.130Z,62.04
2022-10-08T09:52:17.460Z,61.77
2022-10-08T09:54:48.784Z,61.51
2022-10-08T09:57:16.782Z,61.36
2022-10-08T09:59:50.474Z,61.45
2022-10-08T10:02:39.359Z,61.17
2022-10-08T10:05:08.270Z,61.27
2022-10-08T10:07:41.790Z,61.19
2022-10-08T10:10:17.529Z,61.13
2022-10-08T10:12:45.830Z,60.30
2022-10-08T10:15:16.011Z,60.55
2022-10-08T10:17:45.791Z,60.33
2022-10-08T10:20:16.919Z,60.60
2022-10-08T10:22:49.674Z,60.52
2022-10-08T10:25:19.306Z,60.15
2022-10-08T10:27:48.917Z,60.62
2022-10-08T10:30:18.769Z,60.07
2022-10-08T10:32:49.898Z,60.37
2022-10-08T10:35:21.349Z,60.49
2022-10-08T10:37:52.089Z,60.40
2022-10-08T10:40:28.874Z,60.28
2022-10-08T10:43:01.827Z,60.20
2022-10-08T10:45:34.926Z,60.28
2022-10-08T10:48:02.663Z,59.80
2022-10-08T10:50:34.694Z,59.98
2022-10-08T10:53:06.058Z,60.33
2022-10-08T10:55:36.054Z,60.39
2022-10-08T10:58:13.316Z,59.84
2022-10-08T11:00:44.581Z,60.48
2022-10-08T11:03:14.918Z,60.46
2022-10-08T11:05:42.598Z,60.11
2022-10-08T11:08:18.465Z,59.48
2022-10-08T11:10:53.754Z,59.35
2022-10-08T11:13:35.400Z,59.64
2022-10-08T11:16:10.736Z,59.08
2022-10-08T11:18:40.547Z,60.01
2022-10-08T11:21:14.911Z,59.85
2022-10-08T11:23:54.025Z,60.58
2022-10-08T11:26:25.341Z,60.73
2022-10-08T11:28:57.667Z,60.82
2022-10-08T11:31:29.456Z,61.16
2022-10-08T11:33:57.196Z,61.19
2022-10-08T11:36:32.663Z,61.21
2022-10-08T11:39:05.711Z,61.81
2022-10-08T11:41:35.501Z,61.89
2022-10-08T11:44:03.816Z,61.90
2022-10-08T11:46:32.277Z,61.93
2022-10-08T11:49:01.561Z,62.25
2022-10-08T11:51:31.748Z,63.05
2022-10-08T11:54:13.440Z,63.67
2022-10-08T11:56:43.759Z,63.69
2022-10-08T11:59:25.684Z,64.24
2022-10-08T12:01:54.395Z,64.34
2022-10-08T12:04:23.026Z,64.00
2022-10-08T12:07:00.621Z,63.88
2022-10-08T12:09:51.075Z,63.64
2022-10-08T12:12:18.797Z,63.55
2022-10-08T12:14:48.001Z,63.08
2022-10-08T12:17:16.307Z,62.93
2022-10-08T12:20:02.606Z,63.00
2022-10-08T12:22:43.032Z,62.79
2022-10-08T12:25:36.936Z,63.05
2022-10-08T12:28:39.144Z,62.73
2022-10-08T12:31:35.559Z,62.52
2022-10-08T12:34:05.100Z,62.36
2022-10-08T12:36:37.641Z,62.29
2022-10-08T12:39:06.318Z,62.20
2022-10-08T12:41:38.823Z,62.37
2022-10-08T12:44:08.576Z,62.09
2022-10-08T12:46:39.232Z,61.92
2022-10-08T12:49:12.963Z,62.05
2022-10-08T12:51:44.024Z,62.02
2022-10-08T12:54:18.567Z,61.78
2022-10-08T12:56:47.815Z,61.96
2022-10-08T12:59:15.491Z,61.56
2022-10-08T13:01:43.485Z,61.60
2022-10-08T13:04:18.486Z,61.52
2022-10-08T13:06:46.270Z,61.55
2022-10-08T13:09:15.304Z,61.61
2022-10-08T13:11:43.593Z,61.57
2022-10-08T13:14:25.534Z,61.24
2022-10-08T13:16:53.151Z,61.32
2022-10-08T13:19:26.120Z,61.07
2022-10-08T13:21:56.788Z,61.01
2022-10-08T13:24:37.954Z,61.27
2022-10-08T13:27:06.649Z,60.92
2022-10-08T13:29:36.660Z,61.05
2022-10-08T13:32:06.525Z,60.71
2022-10-08T13:34:35.860Z,60.54
2022-10-08T13:37:04.256Z,60.98
2022-10-08T13:39:33.195Z,60.81
2022-10-08T13:42:02.782Z,60.85
2022-10-08T13:44:30.453Z,60.84
2022-10-08T13:47:03.581Z,60.98
2022-10-08T13:49:33.119Z,61.03
2022-10-08T13:52:01.462Z,61.20
2022-10-08T13:54:30.353Z,61.11
2022-10-08T13:56:58.213Z,61.39
2022-10-08T13:59:30.262Z,60.88
2022-10-08T14:01:59.946Z,61.53
2022-10-08T14:04:28.033Z,61.15
2022-10-08T14:06:56.121Z,61.45
2022-10-08T14:09:25.578Z,61.83
2022-10-08T14:11:56.187Z,62.06
2022-10-08T14:14:24.076Z,61.98
2022-10-08T14:16:52.207Z,62.54
2022-10-08T14:19:21.585Z,63.57
2022-10-08T14:21:49.422Z,66.13
2022-10-08T14:24:17.126Z,67.40
2022-10-08T14:26:44.833Z,69.61
2022-10-08T14:29:12.577Z,71.17
2022-10-08T14:31:40.342Z,71.59
2022-10-08T14:34:08.141Z,72.73
2022-10-08T14:36:38.151Z,72.11
2022-10-08T14:39:05.959Z,72.05
2022-10-08T14:41:33.661Z,71.89
2022-10-08T14:44:01.410Z,71.39
2022-10-08T14:46:29.077Z,71.50
2022-10-08T14:48:56.836Z,71.47
2022-10-08T14:51:24.596Z,71.30
2022-10-08T14:53:54.271Z,70.89
2022-10-08T14:56:22.325Z,71.38
2022-10-08T14:58:50.042Z,71.33
2022-10-08T15:01:17.762Z,71.45
2022-10-08T15:03:45.943Z,71.33
2022-10-08T15:06:13.973Z,71.23
2022-10-08T15:08:41.732Z,71.37
2022-10-08T15:11:10.937Z,71.20
2022-10-08T15:13:38.639Z,71.26
2022-10-08T15:16:10.438Z,71.37
2022-10-08T15:18:38.149Z,71.01
2022-10-08T15:21:06.130Z,70.82
2022-10-08T15:23:34.145Z,70.86
2022-10-08T15:26:02.798Z,70.83
2022-10-08T15:28:32.076Z,70.69
2022-10-08T15:31:03.908Z,71.02
2022-10-08T15:33:31.632Z,71.17
2022-10-08T15:35:59.322Z,70.94
2022-10-08T15:38:27.051Z,70.91
2022-10-08T15:41:02.497Z,70.84
2022-10-08T15:43:34.225Z,70.87
2022-10-08T15:46:02.066Z,70.97
2022-10-08T15:48:29.774Z,70.98
2022-10-08T15:51:00.910Z,70.90
2022-10-08T15:53:28.703Z,70.87
2022-10-08T15:55:56.376Z,70.69
2022-10-08T15:58:46.112Z,70.76
2022-10-08T16:01:14.126Z,71.07
2022-10-08T16:03:42.718Z,70.99
2022-10-08T16:06:11.259Z,70.97
2022-10-08T16:08:39.308Z,70.88
2022-10-08T16:11:15.012Z,70.91
2022-10-08T16:13:42.849Z,70.94
2022-10-08T16:16:14.965Z,70.92
2022-10-08T16:18:44.659Z,71.08
2022-10-08T16:21:12.932Z,71.05
2022-10-08T16:23:40.681Z,69.98
2022-10-08T16:26:09.232Z,68.86
2022-10-08T16:28:38.075Z,69.92
2022-10-08T16:31:06.267Z,70.00
2022-10-08T16:33:34.027Z,69.91
2022-10-08T16:36:04.416Z,69.48
2022-10-08T16:38:32.984Z,69.20
2022-10-08T16:41:11.846Z,68.51
2022-10-08T16:43:39.573Z,68.30
2022-10-08T16:46:15.787Z,68.13
2022-10-08T16:48:43.553Z,67.56
2022-10-08T16:51:13.069Z,67.57
2022-10-08T16:53:40.825Z,67.00
2022-10-08T16:56:08.506Z,67.20
2022-10-08T16:58:36.094Z,67.04
2022-10-08T17:01:08.123Z,66.84
2022-10-08T17:03:36.048Z,66.74
2022-10-08T17:06:03.957Z,66.88
2022-10-08T17:08:33.149Z,66.20
2022-10-08T17:11:04.750Z,66.68
2022-10-08T17:13:32.526Z,66.06
2022-10-08T17:16:00.982Z,66.00
2022-10-08T17:18:29.060Z,66.30
2022-10-08T17:20:57.021Z,65.67
2022-10-08T17:23:24.918Z,65.51
2022-10-08T17:25:57.818Z,65.27
2022-10-08T17:28:28.203Z,65.41
2022-10-08T17:30:56.231Z,65.24
2022-10-08T17:33:23.972Z,65.05
2022-10-08T17:36:00.033Z,64.83
2022-10-08T17:38:27.747Z,64.57
2022-10-08T17:40:56.786Z,64.92
2022-10-08T17:43:24.571Z,64.69
2022-10-08T17:45:52.367Z,64.25
2022-10-08T17:48:20.063Z,64.73
2022-10-08T17:50:47.750Z,64.65
2022-10-08T17:53:15.471Z,64.37
2022-10-08T17:55:43.165Z,64.27
2022-10-08T17:58:12.277Z,64.18
2022-10-08T18:00:39.969Z,64.03
2022-10-08T18:03:07.874Z,64.33
2022-10-08T18:05:35.595Z,64.14
2022-10-08T18:08:03.310Z,64.01
2022-10-08T18:10:30.950Z,63.99
2022-10-08T18:12:58.701Z,64.00
2022-10-08T18:15:27.808Z,63.81
2022-10-08T18:17:55.506Z,63.91
2022-10-08T18:20:23.250Z,63.91
2022-10-08T18:22:50.999Z,63.70
2022-10-08T18:25:18.754Z,63.57
2022-10-08T18:27:46.466Z,63.26
2022-10-08T18:30:14.362Z,63.82
2022-10-08T18:32:43.524Z,63.65
2022-10-08T18:35:11.829Z,63.39
2022-10-08T18:37:39.506Z,63.58
2022-10-08T18:40:07.821Z,63.67
2022-10-08T18:42:35.493Z,63.67
2022-10-08T18:45:03.206Z,63.83
2022-10-08T18:47:30.921Z,63.94
2022-10-08T18:49:59.949Z,63.76
2022-10-08T18:52:27.587Z,63.58
2022-10-08T18:54:55.274Z,63.57
2022-10-08T18:57:23.037Z,63.55
2022-10-08T18:59:50.719Z,63.61
2022-10-08T19:02:18.502Z,63.77
2022-10-08T19:04:46.341Z,63.89
2022-10-08T19:07:15.531Z,63.49
2022-10-08T19:09:43.391Z,63.89
2022-10-08T19:12:10.983Z,64.06
2022-10-08T19:14:38.580Z,63.37
2022-10-08T19:17:06.520Z,63.07
2022-10-08T19:19:34.353Z,62.19
2022-10-08T19:22:02.104Z,61.29
2022-10-08T19:24:31.530Z,61.62
2022-10-08T19:26:59.260Z,61.68
2022-10-08T19:29:28.852Z,61.73
2022-10-08T19:31:56.811Z,61.53
2022-10-08T19:34:25.683Z,61.40
2022-10-08T19:36:53.373Z,61.03
2022-10-08T19:39:22.105Z,60.78
2022-10-08T19:41:51.326Z,60.43
2022-10-08T19:44:19.355Z,61.07
2022-10-08T19:46:47.372Z,60.65
2022-10-08T19:49:15.075Z,60.54
2022-10-08T19:51:43.027Z,60.35
2022-10-08T19:54:10.757Z,59.72
2022-10-08T19:56:38.598Z,59.74
2022-10-08T19:59:07.678Z,60.17
2022-10-08T20:01:36.947Z,60.23
2022-10-08T20:04:05.582Z,59.55
2022-10-08T20:06:33.825Z,59.74
2022-10-08T20:09:02.219Z,60.33
2022-10-08T20:11:30.350Z,60.65
2022-10-08T20:13:58.277Z,60.66
2022-10-08T20:16:28.379Z,60.96
2022-10-08T20:18:58.863Z,60.72
2022-10-08T20:21:26.874Z,60.73
2022-10-08T20:23:54.609Z,60.77
2022-10-08T20:26:23.664Z,60.72
2022-10-08T20:28:52.075Z,61.11
2022-10-08T20:31:20.782Z,60.70
2022-10-08T20:33:49.928Z,60.96
2022-10-08T20:36:18.051Z,60.83
2022-10-08T20:38:46.108Z,60.95
2022-10-08T20:41:13.879Z,60.96
2022-10-08T20:43:41.645Z,60.83
2022-10-08T20:46:10.757Z,60.87
2022-10-08T20:48:39.519Z,60.77
2022-10-08T20:51:09.837Z,61.03
2022-10-08T20:53:37.575Z,60.83
2022-10-08T20:56:05.708Z,60.98
2022-10-08T20:58:33.455Z,61.33
2022-10-08T21:01:05.974Z,60.98
2022-10-08T21:03:33.781Z,60.85
2022-10-08T21:06:01.511Z,61.17
2022-10-08T21:08:30.534Z,60.87
2022-10-08T21:11:01.518Z,60.99
2022-10-08T21:13:29.559Z,60.95
2022-10-08T21:16:01.609Z,61.06
2022-10-08T21:18:29.362Z,61.05
2022-10-08T21:20:57.029Z,61.21
2022-10-08T21:23:24.799Z,61.54
2022-10-08T21:25:53.925Z,60.91
2022-10-08T21:28:21.745Z,60.83
2022-10-08T21:30:54.041Z,61.12
2022-10-08T21:33:21.747Z,61.01
2022-10-08T21:35:49.422Z,61.41
2022-10-08T21:38:17.175Z,61.10
2022-10-08T21:40:44.892Z,60.91
2022-10-08T21:43:14.033Z,61.40
2022-10-08T21:45:41.913Z,61.00
2022-10-08T21:48:09.643Z,61.23
2022-10-08T21:50:37.331Z,61.11
2022-10-08T21:53:05.044Z,61.21
2022-10-08T21:55:32.681Z,61.14
2022-10-08T21:58:00.346Z,61.65
2022-10-08T22:00:32.778Z,61.33
2022-10-08T22:03:00.450Z,61.59
2022-10-08T22:05:29.994Z,61.46
2022-10-08T22:07:57.683Z,61.66
2022-10-08T22:10:25.433Z,61.94
2022-10-08T22:12:53.232Z,61.98
2022-10-08T22:15:20.830Z,61.88
2022-10-08T22:17:49.845Z,62.05
2022-10-08T22:20:17.490Z,62.37
2022-10-08T22:22:45.345Z,62.47
2022-10-08T22:25:13.218Z,62.50
2022-10-08T22:27:40.859Z,63.00
2022-10-08T22:30:10.086Z,62.77
2022-10-08T22:32:37.698Z,62.94
2022-10-08T22:35:07.854Z,62.86
2022-10-08T22:37:35.467Z,62.88
2022-10-08T22:40:03.061Z,62.88
2022-10-08T22:42:30.642Z,63.08
2022-10-08T22:44:58.314Z,63.11
2022-10-08T22:47:26.019Z,63.47
2022-10-08T22:49:53.670Z,63.31
2022-10-08T22:52:22.763Z,63.39
2022-10-08T22:54:50.484Z,63.49
2022-10-08T22:57:18.172Z,63.28
2022-10-08T22:59:45.908Z,63.72
2022-10-08T23:02:13.802Z,63.37
2022-10-08T23:04:41.516Z,63.63
2022-10-08T23:07:09.258Z,63.80
2022-10-08T23:09:38.610Z,63.77
2022-10-08T23:12:06.315Z,63.59
2022-10-08T23:14:33.976Z,63.70
2022-10-08T23:17:01.722Z,63.50
2022-10-08T23:19:29.500Z,63.40
2022-10-08T23:21:57.429Z,63.65
2022-10-08T23:24:25.058Z,63.51
2022-10-08T23:26:54.147Z,63.64
2022-10-08T23:29:21.879Z,63.98
2022-10-08T23:31:49.616Z,63.80
2022-10-08T23:34:17.335Z,63.76
2022-10-08T23:36:45.435Z,63.98
2022-10-08T23:39:14.203Z,63.84
2022-10-08T23:41:41.956Z,63.99
2022-10-08T23:44:11.323Z,64.45
2022-10-08T23:46:39.085Z,63.95
2022-10-08T23:49:06.751Z,63.95
2022-10-08T23:51:34.501Z,64.35
2022-10-08T23:54:02.239Z,63.97
2022-10-08T23:56:29.994Z,64.17
2022-10-08T23:58:58.265Z,64.00
